createdAt,value
2018-06-06T00:02:27.017Z,94.20
2018-06-06T00:04:57.468Z,94.30
2018-06-06T00:07:27.884Z,94.40
2018-06-06T00:09:58.305Z,94.50
2018-06-06T00:12:28.703Z,94.60
2018-06-06T00:14:59.124Z,94.80
2018-06-06T00:17:29.613Z,94.80
2018-06-06T00:20:00.067Z,94.90
2018-06-06T00:22:30.479Z,95.00
2018-06-06T00:25:00.937Z,95.10
2018-06-06T00:27:31.517Z,95.20
2018-06-06T00:30:01.941Z,95.40
2018-06-06T00:32:32.354Z,95.50
2018-06-06T00:35:02.790Z,95.70
2018-06-06T00:37:33.244Z,95.80
2018-06-06T00:40:03.890Z,95.90
2018-06-06T00:42:34.303Z,96.10
2018-06-06T00:45:04.768Z,96.10
2018-06-06T00:47:35.134Z,96.20
2018-06-06T00:50:05.636Z,96.20
2018-06-06T00:52:36.062Z,96.20
2018-06-06T00:55:23.336Z,96.30
2018-06-06T00:57:53.725Z,96.40
2018-06-06T01:00:24.125Z,96.40
2018-06-06T01:02:54.563Z,96.60
2018-06-06T01:05:25.027Z,96.60
2018-06-06T01:07:55.503Z,96.60
2018-06-06T01:10:25.895Z,96.60
2018-06-06T01:12:57.231Z,96.70
2018-06-06T01:15:27.653Z,96.70
2018-06-06T01:17:58.085Z,96.90
2018-06-06T01:20:28.589Z,96.90
2018-06-06T01:22:59.083Z,96.90
2018-06-06T01:25:29.488Z,96.90
2018-06-06T01:27:59.969Z,96.90
2018-06-06T01:30:30.379Z,97.00
2018-06-06T01:33:00.854Z,97.10
2018-06-06T01:35:31.270Z,97.40
2018-06-06T01:38:01.693Z,97.50
2018-06-06T01:40:32.141Z,97.50
2018-06-06T01:43:02.562Z,97.70
2018-06-06T01:45:32.984Z,97.90
2018-06-06T01:48:03.411Z,98.00
2018-06-06T01:50:34.249Z,98.10
2018-06-06T01:53:04.724Z,98.00
2018-06-06T01:55:35.103Z,98.20
2018-06-06T01:58:05.446Z,98.50
2018-06-06T02:00:36.527Z,98.60
2018-06-06T02:03:06.986Z,98.60
2018-06-06T02:05:37.460Z,98.80
2018-06-06T02:08:07.923Z,98.70
2018-06-06T02:10:38.421Z,98.80
2018-06-06T02:13:08.779Z,98.50
2018-06-06T02:15:39.121Z,98.60
2018-06-06T02:18:09.654Z,98.70
2018-06-06T02:20:40.078Z,98.70
2018-06-06T02:23:10.551Z,98.70
2018-06-06T02:25:41.032Z,98.80
2018-06-06T02:28:11.427Z,99.00
2018-06-06T02:30:41.864Z,99.00
2018-06-06T02:33:12.280Z,99.10
2018-06-06T02:35:42.680Z,99.00
2018-06-06T02:38:13.066Z,99.10
2018-06-06T02:40:43.542Z,99.10
2018-06-06T02:43:13.894Z,99.30
2018-06-06T02:45:44.284Z,99.20
2018-06-06T02:48:14.711Z,99.10
2018-06-06T02:50:45.182Z,99.00
2018-06-06T02:53:15.575Z,99.30
2018-06-06T02:55:46.094Z,99.40
2018-06-06T02:58:17.318Z,98.80
2018-06-06T03:00:47.734Z,99.10
2018-06-06T03:03:18.196Z,99.30
2018-06-06T03:05:48.623Z,99.20
2018-06-06T03:08:19.083Z,99.20
2018-06-06T03:10:49.890Z,99.10
2018-06-06T03:13:20.321Z,99.00
2018-06-06T03:15:50.802Z,99.00
2018-06-06T03:18:21.184Z,99.10
2018-06-06T03:20:51.599Z,98.90
2018-06-06T03:23:22.037Z,99.00
2018-06-06T03:25:52.429Z,98.90
2018-06-06T03:28:22.926Z,99.00
2018-06-06T03:30:54.173Z,99.00
2018-06-06T03:33:24.603Z,99.00
2018-06-06T03:35:55.038Z,99.00
2018-06-06T03:38:25.447Z,99.00
2018-06-06T03:40:55.855Z,99.10
2018-06-06T03:43:26.333Z,99.10
2018-06-06T03:45:56.725Z,99.30
2018-06-06T03:48:27.338Z,99.40
2018-06-06T03:50:57.860Z,99.20
2018-06-06T03:53:28.339Z,99.10
2018-06-06T03:55:58.960Z,99.10
2018-06-06T03:58:29.392Z,99.00
2018-06-06T04:00:59.905Z,99.00
2018-06-06T04:03:30.346Z,99.00
2018-06-06T04:06:00.800Z,98.90
2018-06-06T04:08:33.913Z,99.00
2018-06-06T04:11:05.930Z,99.10
2018-06-06T04:13:38.452Z,99.00
2018-06-06T04:16:08.927Z,99.10
2018-06-06T04:18:39.386Z,99.20
2018-06-06T04:21:09.870Z,99.20
2018-06-06T04:23:47.599Z,99.30
2018-06-06T04:26:20.699Z,99.30
2018-06-06T04:28:52.886Z,99.40
2018-06-06T04:31:23.522Z,99.40
2018-06-06T04:33:53.998Z,99.70
2018-06-06T04:36:24.504Z,99.20
2018-06-06T04:38:54.958Z,99.20
2018-06-06T04:41:26.428Z,99.00
2018-06-06T04:43:56.858Z,98.90
2018-06-06T04:46:27.342Z,98.90
2018-06-06T04:48:57.860Z,98.50
2018-06-06T04:51:28.336Z,98.80
2018-06-06T04:53:58.886Z,98.20
2018-06-06T04:56:29.384Z,97.90
2018-06-06T04:58:59.877Z,97.30
2018-06-06T05:01:30.336Z,96.20
2018-06-06T05:04:00.736Z,95.20
2018-06-06T05:06:31.156Z,95.40
2018-06-06T05:09:01.545Z,94.50
2018-06-06T05:11:32.044Z,94.00
2018-06-06T05:14:02.470Z,93.30
2018-06-06T05:16:32.837Z,92.80
2018-06-06T05:19:03.980Z,92.80
2018-06-06T05:21:34.380Z,92.10
2018-06-06T05:24:04.942Z,91.40
2018-06-06T05:26:35.431Z,91.30
2018-06-06T05:29:06.874Z,90.70
2018-06-06T05:31:40.664Z,90.70
2018-06-06T05:34:13.359Z,90.10
2018-06-06T05:36:45.619Z,90.10
2018-06-06T05:39:17.859Z,89.40
2018-06-06T05:41:50.665Z,88.70
2018-06-06T05:44:23.023Z,87.20
2018-06-06T05:46:56.089Z,86.80
2018-06-06T05:49:29.246Z,86.60
2018-06-06T05:51:59.921Z,86.40
2018-06-06T05:54:30.330Z,85.80
2018-06-06T05:57:00.754Z,85.40
2018-06-06T05:59:31.154Z,87.10
2018-06-06T06:02:01.666Z,86.00
2018-06-06T06:04:32.084Z,86.00
2018-06-06T06:07:02.513Z,86.70
2018-06-06T06:09:32.933Z,87.70
2018-06-06T06:12:03.416Z,89.00
2018-06-06T06:14:33.841Z,90.20
2018-06-06T06:17:04.313Z,90.00
2018-06-06T06:19:34.950Z,90.40
2018-06-06T06:22:05.446Z,90.20
2018-06-06T06:24:35.824Z,90.50
2018-06-06T06:27:06.328Z,90.40
2018-06-06T06:29:36.732Z,88.60
2018-06-06T06:32:07.224Z,87.50
2018-06-06T06:34:37.688Z,87.50
2018-06-06T06:37:08.052Z,86.50
2018-06-06T06:39:38.525Z,85.20
2018-06-06T06:42:08.949Z,85.40
2018-06-06T06:44:39.428Z,86.10
2018-06-06T06:47:09.887Z,84.10
2018-06-06T06:49:40.336Z,84.60
2018-06-06T06:52:11.676Z,84.40
2018-06-06T06:54:42.913Z,83.90
2018-06-06T06:57:16.203Z,82.90
2018-06-06T06:59:50.782Z,82.60
2018-06-06T07:02:31.384Z,82.60
2018-06-06T07:05:05.183Z,83.40
2018-06-06T07:07:41.473Z,82.20
2018-06-06T07:10:12.313Z,82.90
2018-06-06T07:12:42.809Z,82.80
2018-06-06T07:15:14.150Z,82.70
2018-06-06T07:17:44.739Z,83.20
2018-06-06T07:20:15.215Z,82.80
2018-06-06T07:22:47.190Z,82.20
2018-06-06T07:25:17.830Z,82.30
2018-06-06T07:27:48.720Z,82.50
2018-06-06T07:30:19.435Z,83.10
2018-06-06T07:32:50.064Z,83.00
2018-06-06T07:35:21.631Z,83.20
2018-06-06T07:37:57.250Z,82.20
2018-06-06T07:40:34.132Z,82.90
2018-06-06T07:43:08.757Z,83.20
2018-06-06T07:45:40.729Z,82.10
2018-06-06T07:48:12.232Z,82.00
2018-06-06T07:50:43.720Z,82.30
2018-06-06T07:53:14.707Z,81.90
2018-06-06T07:55:45.288Z,83.30
2018-06-06T07:58:15.738Z,84.20
2018-06-06T08:03:18.756Z,82.60
2018-06-06T08:05:49.375Z,83.50
2018-06-06T08:08:20.635Z,83.20
2018-06-06T08:10:51.072Z,83.20
2018-06-06T08:13:21.650Z,83.00
2018-06-06T08:15:52.972Z,82.40
2018-06-06T08:18:23.582Z,83.40
2018-06-06T08:20:55.997Z,82.80
2018-06-06T08:23:28.006Z,82.90
2018-06-06T08:25:58.981Z,83.10
2018-06-06T08:28:30.413Z,83.10
2018-06-06T08:31:01.120Z,82.50
2018-06-06T08:33:31.537Z,83.60
2018-06-06T08:36:02.704Z,82.90
2018-06-06T08:38:33.186Z,83.50
2018-06-06T08:41:03.754Z,83.30
2018-06-06T08:43:35.061Z,83.90
2018-06-06T08:46:05.786Z,84.20
2018-06-06T08:48:40.535Z,84.60
2018-06-06T08:51:13.252Z,84.60
2018-06-06T08:53:46.156Z,84.20
2018-06-06T08:56:17.335Z,83.70
2018-06-06T08:58:48.476Z,82.90
2018-06-06T09:01:19.125Z,84.40
2018-06-06T09:03:50.651Z,84.30
2018-06-06T09:06:21.198Z,84.30
2018-06-06T09:08:52.379Z,82.70
2018-06-06T09:11:23.122Z,82.80
2018-06-06T09:13:54.621Z,84.10
2018-06-06T09:16:25.068Z,83.30
2018-06-06T09:18:58.702Z,83.30
2018-06-06T09:21:29.397Z,82.70
2018-06-06T09:24:00.066Z,82.60
2018-06-06T09:26:31.968Z,80.80
2018-06-06T09:29:02.471Z,79.70
2018-06-06T09:31:34.534Z,81.50
2018-06-06T09:34:04.991Z,82.60
2018-06-06T09:36:35.766Z,82.30
2018-06-06T09:39:08.956Z,83.30
2018-06-06T09:41:39.556Z,82.50
2018-06-06T09:44:12.133Z,83.90
2018-06-06T09:46:55.140Z,83.30
2018-06-06T09:49:47.097Z,82.70
2018-06-06T09:52:37.504Z,83.00
2018-06-06T09:55:40.122Z,82.70
2018-06-06T09:58:24.891Z,82.50
2018-06-06T10:01:10.062Z,82.60
2018-06-06T10:04:04.683Z,81.00
2018-06-06T10:06:48.822Z,81.10
2018-06-06T10:09:49.325Z,79.60
2018-06-06T10:12:36.901Z,78.50
2018-06-06T10:15:15.504Z,78.40
2018-06-06T10:17:56.497Z,78.80
2018-06-06T10:20:29.044Z,80.20
2018-06-06T10:23:00.622Z,78.90
2018-06-06T10:25:31.102Z,77.70
2018-06-06T10:28:01.552Z,75.00
2018-06-06T10:30:32.051Z,75.90
2018-06-06T10:33:02.547Z,77.80
2018-06-06T10:35:33.040Z,76.80
2018-06-06T10:38:08.664Z,77.90
2018-06-06T10:40:41.759Z,78.10
2018-06-06T10:43:12.479Z,77.50
2018-06-06T10:45:44.066Z,76.60
2018-06-06T10:48:14.697Z,76.40
2018-06-06T10:50:46.981Z,77.20
2018-06-06T10:53:17.437Z,74.80
2018-06-06T10:55:47.884Z,76.80
2018-06-06T10:58:18.344Z,75.40
2018-06-06T11:00:48.850Z,75.50
2018-06-06T11:03:19.312Z,75.80
2018-06-06T11:05:49.722Z,76.70
2018-06-06T11:08:20.231Z,76.30
2018-06-06T11:10:50.791Z,77.00
2018-06-06T11:13:21.231Z,77.00
2018-06-06T11:15:51.624Z,75.90
2018-06-06T11:18:22.087Z,76.00
2018-06-06T11:20:52.588Z,75.70
2018-06-06T11:23:23.618Z,73.90
2018-06-06T11:25:54.261Z,75.30
2018-06-06T11:28:24.725Z,72.80
2018-06-06T11:30:55.169Z,73.30
2018-06-06T11:33:25.571Z,74.00
2018-06-06T11:35:55.955Z,71.60
2018-06-06T11:38:26.361Z,70.70
2018-06-06T11:40:56.810Z,71.00
2018-06-06T11:43:27.286Z,70.70
2018-06-06T11:45:57.709Z,69.80
2018-06-06T11:48:28.067Z,69.10
2018-06-06T11:50:58.515Z,68.30
2018-06-06T11:53:28.957Z,68.50
2018-06-06T11:55:59.378Z,69.10
2018-06-06T11:58:29.799Z,68.40
2018-06-06T12:01:00.270Z,68.20
2018-06-06T12:03:30.653Z,67.00
2018-06-06T12:06:01.149Z,67.50
2018-06-06T12:08:31.607Z,67.20
2018-06-06T12:11:02.068Z,69.30
2018-06-06T12:13:32.557Z,69.40
2018-06-06T12:16:02.966Z,69.30
2018-06-06T12:18:33.645Z,70.20
2018-06-06T12:21:04.156Z,67.60
2018-06-06T12:23:34.617Z,65.20
2018-06-06T12:26:05.065Z,61.40
2018-06-06T12:28:35.485Z,59.70
2018-06-06T12:31:05.910Z,59.20
2018-06-06T12:33:36.311Z,61.30
2018-06-06T12:36:07.370Z,64.90
2018-06-06T12:38:40.532Z,65.20
2018-06-06T12:41:10.931Z,60.70
2018-06-06T12:43:41.329Z,56.60
2018-06-06T12:46:11.797Z,54.60
2018-06-06T12:48:42.238Z,54.80
2018-06-06T12:51:12.749Z,56.70
2018-06-06T12:53:43.109Z,56.60
2018-06-06T12:56:13.591Z,63.90
2018-06-06T12:58:44.051Z,63.90
2018-06-06T13:01:14.478Z,64.10
2018-06-06T13:03:44.876Z,63.30
2018-06-06T13:06:16.125Z,61.90
2018-06-06T13:08:46.502Z,62.10
2018-06-06T13:11:17.253Z,58.50
2018-06-06T13:13:47.714Z,58.60
2018-06-06T13:16:18.121Z,57.50
2018-06-06T13:18:48.588Z,57.80
2018-06-06T13:21:20.017Z,58.20
2018-06-06T13:23:50.445Z,58.30
2018-06-06T13:26:20.854Z,59.70
2018-06-06T13:28:51.238Z,60.40
2018-06-06T13:31:21.831Z,62.30
2018-06-06T13:33:52.191Z,62.80
2018-06-06T13:36:22.553Z,65.00
2018-06-06T13:38:53.010Z,66.10
2018-06-06T13:41:24.111Z,65.50
2018-06-06T13:43:54.453Z,62.50
2018-06-06T13:46:24.911Z,68.90
2018-06-06T13:48:55.316Z,71.80
2018-06-06T13:51:25.670Z,68.60
2018-06-06T13:53:56.097Z,65.00
2018-06-06T13:56:26.594Z,65.40
2018-06-06T13:58:56.971Z,67.90
2018-06-06T14:01:27.433Z,68.20
2018-06-06T14:03:57.874Z,69.40
2018-06-06T14:06:28.360Z,68.70
2018-06-06T14:08:58.855Z,69.80
2018-06-06T14:11:29.360Z,70.10
2018-06-06T14:13:59.832Z,70.80
2018-06-06T14:16:30.355Z,70.80
2018-06-06T14:19:00.786Z,70.30
2018-06-06T14:21:31.260Z,72.50
2018-06-06T14:24:01.723Z,71.70
2018-06-06T14:26:32.200Z,68.80
2018-06-06T14:29:02.701Z,64.10
2018-06-06T14:31:33.074Z,61.80
2018-06-06T14:34:03.529Z,61.80
2018-06-06T14:36:34.071Z,61.60
2018-06-06T14:39:06.670Z,61.30
2018-06-06T14:41:37.793Z,59.60
2018-06-06T14:44:08.292Z,59.10
2018-06-06T14:46:38.819Z,59.20
2018-06-06T14:49:09.250Z,57.70
2018-06-06T14:51:39.669Z,57.90
2018-06-06T14:54:10.130Z,57.80
2018-06-06T14:56:40.544Z,57.80
2018-06-06T14:59:11.108Z,57.30
2018-06-06T15:01:41.673Z,57.70
2018-06-06T15:04:12.095Z,57.80
2018-06-06T15:06:42.653Z,57.30
2018-06-06T15:09:13.072Z,57.90
2018-06-06T15:11:43.522Z,57.90
2018-06-06T15:14:13.985Z,57.80
2018-06-06T15:16:44.437Z,57.60
2018-06-06T15:19:14.876Z,57.90
2018-06-06T15:21:45.345Z,59.30
2018-06-06T15:24:15.916Z,59.00
2018-06-06T15:26:46.332Z,59.30
2018-06-06T15:29:17.471Z,59.70
2018-06-06T15:31:47.862Z,58.80
2018-06-06T15:34:18.266Z,59.40
2018-06-06T15:36:48.748Z,59.10
2018-06-06T15:39:19.197Z,58.30
2018-06-06T15:41:49.613Z,58.90
2018-06-06T15:44:20.092Z,58.40
2018-06-06T15:46:50.575Z,58.40
2018-06-06T15:49:21.054Z,59.20
2018-06-06T15:51:51.524Z,59.10
2018-06-06T15:54:32.552Z,58.10
2018-06-06T15:57:03.099Z,58.10
2018-06-06T15:59:33.623Z,58.10
2018-06-06T16:02:04.189Z,57.30
2018-06-06T16:04:34.844Z,57.40
2018-06-06T16:07:05.421Z,57.90
2018-06-06T16:09:36.868Z,57.20
2018-06-06T16:12:07.746Z,57.70
2018-06-06T16:14:38.248Z,57.60
2018-06-06T16:17:08.864Z,58.30
2018-06-06T16:19:39.375Z,58.90
2018-06-06T16:22:09.802Z,59.20
2018-06-06T16:24:40.378Z,59.30
2018-06-06T16:27:10.899Z,59.80
2018-06-06T16:29:41.551Z,60.20
2018-06-06T16:32:12.193Z,59.90
2018-06-06T16:34:42.690Z,60.70
2018-06-06T16:37:13.189Z,64.10
2018-06-06T16:39:43.765Z,67.40
2018-06-06T16:42:16.004Z,68.50
2018-06-06T16:44:46.577Z,69.30
2018-06-06T16:47:16.973Z,69.60
2018-06-06T16:49:47.462Z,69.90
2018-06-06T16:52:17.862Z,70.60
2018-06-06T16:54:48.422Z,70.80
2018-06-06T16:57:18.873Z,70.70
2018-06-06T16:59:49.503Z,70.70
2018-06-06T17:02:20.995Z,70.10
2018-06-06T17:04:51.511Z,70.60
2018-06-06T17:07:21.996Z,70.10
2018-06-06T17:09:52.432Z,71.10
2018-06-06T17:12:22.911Z,71.90
2018-06-06T17:14:53.379Z,71.80
2018-06-06T17:17:23.856Z,71.00
2018-06-06T17:19:54.461Z,72.40
2018-06-06T17:22:25.240Z,71.00
2018-06-06T17:24:55.814Z,70.50
2018-06-06T17:27:28.423Z,70.70
2018-06-06T17:29:59.124Z,70.90
2018-06-06T17:35:00.978Z,71.00
2018-06-06T17:37:31.481Z,71.40
2018-06-06T17:40:01.933Z,71.10
2018-06-06T17:42:32.367Z,70.40
2018-06-06T17:45:03.307Z,71.50
2018-06-06T17:47:34.022Z,72.20
2018-06-06T17:50:04.943Z,72.50
2018-06-06T17:52:35.619Z,72.40
2018-06-06T17:55:06.217Z,72.60
2018-06-06T17:57:38.836Z,72.90
2018-06-06T18:00:13.067Z,73.00
2018-06-06T18:02:43.977Z,73.60
2018-06-06T18:05:16.533Z,73.60
2018-06-06T18:07:48.097Z,74.30
2018-06-06T18:10:18.823Z,73.90
2018-06-06T18:19:11.753Z,73.90
2018-06-06T18:21:44.562Z,74.20
2018-06-06T18:24:15.460Z,75.90
2018-06-06T18:26:46.041Z,75.70
2018-06-06T18:29:18.652Z,75.60
2018-06-06T18:31:49.246Z,75.70
2018-06-06T18:34:20.525Z,74.60
2018-06-06T18:36:51.100Z,74.80
2018-06-06T18:39:21.582Z,74.80
2018-06-06T18:41:52.178Z,74.70
2018-06-06T18:44:22.657Z,74.90
2018-06-06T18:46:53.240Z,75.00
2018-06-06T18:49:24.388Z,74.50
2018-06-06T18:51:56.445Z,74.80
2018-06-06T18:54:27.029Z,74.80
2018-06-06T18:59:51.928Z,73.70
2018-06-06T19:02:22.411Z,74.50
2018-06-06T19:04:53.493Z,74.50
2018-06-06T19:07:24.002Z,74.60
2018-06-06T19:09:54.556Z,74.50
2018-06-06T19:12:25.118Z,74.60
2018-06-06T19:14:55.635Z,75.10
2018-06-06T19:17:26.737Z,74.80
2018-06-06T19:19:57.283Z,74.90
2018-06-06T19:22:27.690Z,74.60
2018-06-06T19:24:58.197Z,73.40
2018-06-06T19:27:28.603Z,73.20
2018-06-06T19:29:59.112Z,73.50
2018-06-06T19:32:29.794Z,73.30
2018-06-06T19:35:00.303Z,73.20
2018-06-06T19:37:30.745Z,74.20
2018-06-06T19:40:01.793Z,73.90
2018-06-06T19:42:32.267Z,74.80
2018-06-06T19:45:02.795Z,75.30
2018-06-06T19:47:33.337Z,75.90
2018-06-06T19:50:03.805Z,76.80
2018-06-06T19:52:35.203Z,76.60
2018-06-06T19:55:08.970Z,76.90
2018-06-06T19:57:39.876Z,76.90
2018-06-06T20:00:10.364Z,77.70
2018-06-06T20:02:40.861Z,77.40
2018-06-06T20:05:11.357Z,77.40
2018-06-06T20:07:41.946Z,78.00
2018-06-06T20:10:12.457Z,78.10
2018-06-06T20:12:43.699Z,78.90
2018-06-06T20:15:14.254Z,78.70
2018-06-06T20:17:44.764Z,79.00
2018-06-06T20:20:15.289Z,79.40
2018-06-06T20:22:45.757Z,79.40
2018-06-06T20:25:16.254Z,79.00
2018-06-06T20:27:46.765Z,78.70
2018-06-06T20:30:17.305Z,78.60
2018-06-06T20:32:47.761Z,78.50
2018-06-06T20:35:18.283Z,78.20
2018-06-06T20:37:48.715Z,77.80
2018-06-06T20:40:19.223Z,77.90
2018-06-06T20:42:49.665Z,77.90
2018-06-06T20:45:20.694Z,77.30
2018-06-06T20:47:51.243Z,77.10
2018-06-06T20:50:22.670Z,76.80
2018-06-06T20:52:53.311Z,76.60
2018-06-06T20:55:23.800Z,77.60
2018-06-06T20:57:54.528Z,76.10
2018-06-06T21:00:25.068Z,76.30
2018-06-06T21:02:55.590Z,76.60
2018-06-06T21:05:26.038Z,76.70
2018-06-06T21:07:56.581Z,76.30
2018-06-06T21:10:27.579Z,76.60
2018-06-06T21:15:28.172Z,76.70
2018-06-06T21:17:58.562Z,77.10
2018-06-06T21:20:29.122Z,77.10
2018-06-06T21:22:59.722Z,77.20
2018-06-06T21:25:30.116Z,77.40
2018-06-06T21:28:00.511Z,77.50
2018-06-06T21:30:31.007Z,77.50
2018-06-06T21:33:01.496Z,77.50
2018-06-06T21:35:32.025Z,77.50
2018-06-06T21:38:02.516Z,77.70
2018-06-06T21:40:32.956Z,77.70
2018-06-06T21:43:03.373Z,77.70
2018-06-06T21:45:34.512Z,77.90
2018-06-06T21:48:05.694Z,78.10
2018-06-06T21:50:36.131Z,77.90
2018-06-06T21:53:06.694Z,77.90
2018-06-06T21:55:37.110Z,78.10
2018-06-06T21:58:07.547Z,77.90
2018-06-06T22:00:38.045Z,78.00
2018-06-06T22:03:08.553Z,78.00
2018-06-06T22:05:38.982Z,78.40
2018-06-06T22:08:09.364Z,78.20
2018-06-06T22:10:39.785Z,78.20
2018-06-06T22:13:10.290Z,78.60
2018-06-06T22:15:40.745Z,78.30
2018-06-06T22:18:11.150Z,78.60
2018-06-06T22:20:41.525Z,79.20
2018-06-06T22:23:12.051Z,79.40
2018-06-06T22:25:42.434Z,79.80
2018-06-06T22:28:12.801Z,80.40
2018-06-06T22:30:43.252Z,80.50
2018-06-06T22:33:13.677Z,80.80
2018-06-06T22:35:44.116Z,82.00
2018-06-06T22:38:14.645Z,81.80
2018-06-06T22:40:45.046Z,82.10
2018-06-06T22:43:15.486Z,82.30
2018-06-06T22:45:45.893Z,83.00
2018-06-06T22:48:16.356Z,82.80
2018-06-06T22:50:46.737Z,83.40
2018-06-06T22:53:17.160Z,83.60
2018-06-06T22:55:47.608Z,84.00
2018-06-06T22:58:18.068Z,84.50
2018-06-06T23:00:48.511Z,84.90
2018-06-06T23:03:19.005Z,85.10
2018-06-06T23:05:49.459Z,86.00
2018-06-06T23:08:19.917Z,86.50
2018-06-06T23:10:50.392Z,87.00
2018-06-06T23:13:20.852Z,87.20
2018-06-06T23:15:51.362Z,86.80
2018-06-06T23:18:21.863Z,86.80
2018-06-06T23:20:52.310Z,87.60
2018-06-06T23:23:22.756Z,88.60
2018-06-06T23:25:53.265Z,88.80
2018-06-06T23:28:23.730Z,88.90
2018-06-06T23:30:54.773Z,89.20
2018-06-06T23:33:25.156Z,89.50
2018-06-06T23:35:55.556Z,89.60
2018-06-06T23:38:26.005Z,89.40
2018-06-06T23:40:56.431Z,89.90
2018-06-06T23:43:26.803Z,89.70
2018-06-06T23:45:57.250Z,89.40
2018-06-06T23:48:27.719Z,90.10
2018-06-06T23:50:58.193Z,90.50
2018-06-06T23:53:28.614Z,90.70
2018-06-06T23:55:59.059Z,90.80
2018-06-06T23:58:29.446Z,91.10
